Time;durP1;ratioP1;P1;durP2;ratioP2;P2;SDS_P1;SDS_P2;PMS_P1;PMS_P2;Temp;Humidity;BMP_temperature;BMP_pressure;BME280_temperature;BME280_humidity;BME280_pressure;Samples;Min_cycle;Max_cycle;Signal;HPM_P1;HPM_P2
2021/05/21 00:00:30;;;;;;;2.53;0.90;;;;;;;13.40;nan;100303.47;5069082;28;20055;-73
2021/05/21 00:02:57;;;;;;;2.33;0.95;;;;;;;13.41;nan;100299.78;5070213;28;20056;-72
2021/05/21 00:05:23;;;;;;;2.33;0.65;;;;;;;13.43;nan;100295.97;5071514;28;20036;-72
2021/05/21 00:07:48;;;;;;;1.20;0.80;;;;;;;13.42;nan;100280.19;5074888;28;20041;-72
2021/05/21 00:10:13;;;;;;;0.98;0.60;;;;;;;13.37;nan;100286.88;5081896;28;20032;-73
2021/05/21 00:12:39;;;;;;;2.40;0.70;;;;;;;13.37;nan;100284.22;5069609;28;20119;-72
2021/05/21 00:15:06;;;;;;;1.42;0.70;;;;;;;13.35;nan;100288.06;5081283;28;20089;-72
2021/05/21 00:17:32;;;;;;;1.65;0.70;;;;;;;13.32;nan;100286.56;5074233;28;20036;-71
2021/05/21 00:19:57;;;;;;;1.38;0.60;;;;;;;13.34;nan;100279.22;5084144;28;20173;-71
2021/05/21 00:22:22;;;;;;;2.15;0.82;;;;;;;13.36;nan;100266.59;5074207;28;20119;-71
2021/05/21 00:24:47;;;;;;;2.20;0.85;;;;;;;13.33;nan;100266.16;5081150;28;20032;-71
2021/05/21 00:27:13;;;;;;;1.45;0.75;;;;;;;13.34;nan;100254.50;5070999;28;20063;-72
2021/05/21 00:29:38;;;;;;;2.60;1.00;;;;;;;13.36;nan;100255.16;5080311;28;20063;-71
2021/05/21 00:32:04;;;;;;;1.20;0.68;;;;;;;13.35;nan;100237.59;5064451;28;20488;-72
2021/05/21 00:34:29;;;;;;;1.92;0.70;;;;;;;13.39;nan;100249.50;5073291;28;20040;-72
2021/05/21 00:36:54;;;;;;;1.20;0.70;;;;;;;13.36;nan;100242.72;5064911;28;20120;-70
2021/05/21 00:39:20;;;;;;;0.88;0.60;;;;;;;13.36;nan;100236.56;5053202;28;20031;-72
2021/05/21 00:41:46;;;;;;;1.95;0.77;;;;;;;13.35;nan;100230.44;5089815;28;20176;-72
2021/05/21 00:44:14;;;;;;;2.92;0.80;;;;;;;13.40;nan;100229.91;5089911;28;20405;-72
2021/05/21 00:46:39;;;;;;;2.58;0.80;;;;;;;13.34;nan;100233.28;5084962;28;20039;-72
2021/05/21 00:49:05;;;;;;;1.85;0.95;;;;;;;13.37;nan;100222.28;5088922;28;20028;-72
2021/05/21 00:51:32;;;;;;;1.02;0.80;;;;;;;13.36;nan;100224.13;5084656;28;20111;-72
2021/05/21 00:53:58;;;;;;;1.58;0.60;;;;;;;13.37;nan;100223.13;5090070;28;20036;-72
2021/05/21 00:56:24;;;;;;;1.52;0.80;;;;;;;13.43;nan;100221.59;5088217;28;20074;-72
2021/05/21 00:58:50;;;;;;;1.40;0.80;;;;;;;13.47;nan;100214.09;5089711;28;20028;-72
2021/05/21 01:01:15;;;;;;;1.25;0.80;;;;;;;13.44;nan;100209.13;5075429;28;20419;-71
2021/05/21 01:03:41;;;;;;;1.45;0.80;;;;;;;13.43;nan;100202.16;5082970;28;20035;-72
2021/05/21 01:06:07;;;;;;;2.22;1.00;;;;;;;13.43;nan;100196.88;5088100;28;20035;-73
2021/05/21 01:08:35;;;;;;;1.27;0.80;;;;;;;13.45;nan;100203.66;5086674;28;20044;-72
2021/05/21 01:11:02;;;;;;;1.73;0.80;;;;;;;13.43;nan;100192.38;5080723;28;20232;-71
2021/05/21 01:13:27;;;;;;;1.23;0.80;;;;;;;13.43;nan;100181.75;5062832;28;20044;-72
2021/05/21 01:15:52;;;;;;;1.73;0.90;;;;;;;13.42;nan;100193.38;5069021;28;20024;-72
2021/05/21 01:18:18;;;;;;;1.25;0.63;;;;;;;13.42;nan;100192.53;5069703;28;20123;-71
2021/05/21 01:20:43;;;;;;;1.88;0.85;;;;;;;13.43;nan;100183.59;5088220;28;20034;-72
2021/05/21 01:23:09;;;;;;;2.17;0.60;;;;;;;13.48;nan;100186.53;5083840;28;20021;-71
2021/05/21 01:25:35;;;;;;;0.82;0.70;;;;;;;13.46;nan;100177.91;5071309;28;20417;-72
2021/05/21 01:28:03;;;;;;;2.25;1.02;;;;;;;13.41;nan;100175.78;5086245;28;20028;-73
2021/05/21 01:30:29;;;;;;;1.90;1.02;;;;;;;13.50;nan;100165.94;5088160;28;20028;-71
2021/05/21 01:32:55;;;;;;;4.15;0.98;;;;;;;13.48;nan;100167.94;5084975;28;20052;-71
2021/05/21 01:35:21;;;;;;;2.03;0.90;;;;;;;13.48;nan;100170.59;5069573;28;20110;-72
2021/05/21 01:37:49;;;;;;;1.08;0.63;;;;;;;13.45;nan;100163.00;5084450;28;20461;-72
2021/05/21 01:40:15;;;;;;;2.33;0.85;;;;;;;13.48;nan;100152.00;5089030;28;20128;-72
2021/05/21 01:42:42;;;;;;;1.83;0.70;;;;;;;13.48;nan;100154.66;5084031;28;20025;-72
2021/05/21 01:45:09;;;;;;;1.98;0.80;;;;;;;13.46;nan;100154.81;5084397;28;20033;-72
2021/05/21 01:47:35;;;;;;;5.25;1.65;;;;;;;13.46;nan;100148.69;5055064;28;20108;-71
2021/05/21 01:50:01;;;;;;;4.05;1.70;;;;;;;13.47;nan;100145.84;5068831;28;20560;-72
2021/05/21 01:52:27;;;;;;;3.22;1.00;;;;;;;13.46;nan;100144.19;5067873;28;20042;-72
2021/05/21 01:54:52;;;;;;;1.45;0.90;;;;;;;13.48;nan;100147.50;5075873;28;20044;-71
2021/05/21 01:57:18;;;;;;;2.17;0.77;;;;;;;13.49;nan;100141.19;5081786;28;20048;-72
2021/05/21 01:59:43;;;;;;;2.13;0.80;;;;;;;13.45;nan;100139.91;5075511;28;20393;-72
2021/05/21 02:02:09;;;;;;;3.25;0.90;;;;;;;13.51;nan;100125.06;5069404;28;20119;-72
2021/05/21 02:04:42;;;;;;;1.75;0.88;;;;;;;13.52;nan;100129.38;5089001;28;20295;-72
2021/05/21 02:07:10;;;;;;;1.25;0.80;;;;;;;13.50;nan;100131.41;5072256;28;20135;-72
2021/05/21 02:10:03;;;;;;;1.75;0.88;;;;;;;13.53;nan;100134.50;5068815;28;20047;-72
2021/05/21 02:12:30;;;;;;;1.27;0.70;;;;;;;13.60;nan;100126.63;5038901;28;20036;-72
2021/05/21 02:14:59;;;;;;;1.58;0.80;;;;;;;13.60;nan;100123.97;5050408;28;20412;-72
2021/05/21 02:17:25;;;;;;;1.48;0.90;;;;;;;13.62;nan;100121.97;5068676;28;20075;-71
2021/05/21 02:19:55;;;;;;;1.42;0.80;;;;;;;13.65;nan;100113.63;5069057;28;20031;-72
2021/05/21 02:22:22;;;;;;;1.27;0.77;;;;;;;13.67;nan;100114.28;5067983;28;20045;-72
2021/05/21 02:24:47;;;;;;;1.40;0.80;;;;;;;13.67;nan;100108.16;5068652;28;20044;-72
2021/05/21 02:27:12;;;;;;;1.25;0.80;;;;;;;13.69;nan;100104.28;5068237;28;20493;-71
2021/05/21 02:29:39;;;;;;;2.38;0.82;;;;;;;13.70;nan;100105.94;5060846;28;20039;-72
2021/05/21 02:32:04;;;;;;;1.00;0.70;;;;;;;13.71;nan;100098.81;5048573;28;20041;-72
2021/05/21 02:34:30;;;;;;;1.38;0.70;;;;;;;13.71;nan;100102.28;5087499;28;20032;-72
2021/05/21 02:36:55;;;;;;;1.70;0.80;;;;;;;13.66;nan;100094.03;5073946;28;20040;-71
2021/05/21 02:39:21;;;;;;;1.33;0.80;;;;;;;13.68;nan;100086.72;5069024;28;20041;-72
2021/05/21 02:41:46;;;;;;;1.23;0.80;;;;;;;13.71;nan;100089.00;5083534;28;20024;-72
2021/05/21 02:44:11;;;;;;;1.38;0.80;;;;;;;13.72;nan;100077.34;5085696;28;20500;-72
2021/05/21 02:46:37;;;;;;;1.52;0.75;;;;;;;13.73;nan;100081.69;5088253;28;20118;-72
2021/05/21 02:49:02;;;;;;;1.25;0.80;;;;;;;13.73;nan;100073.69;5088072;28;20032;-71
2021/05/21 02:51:27;;;;;;;1.15;0.70;;;;;;;13.73;nan;100070.19;5087321;28;20404;-72
2021/05/21 02:53:53;;;;;;;2.13;0.70;;;;;;;13.70;nan;100071.38;5087786;28;20032;-72
2021/05/21 02:56:18;;;;;;;1.17;0.88;;;;;;;13.71;nan;100059.78;5074594;28;20040;-72
2021/05/21 02:58:44;;;;;;;1.60;0.77;;;;;;;13.66;nan;100045.38;5073430;28;20040;-72
2021/05/21 03:01:09;;;;;;;1.13;0.70;;;;;;;13.67;nan;100044.38;5087414;28;20056;-71
2021/05/21 03:03:35;;;;;;;1.75;0.80;;;;;;;13.72;nan;100047.31;5079036;28;20028;-71
2021/05/21 03:06:00;;;;;;;1.95;0.90;;;;;;;13.67;nan;100045.19;5085241;28;20500;-71
2021/05/21 03:08:25;;;;;;;1.35;0.80;;;;;;;13.70;nan;100036.03;5073543;28;20108;-72
2021/05/21 03:10:51;;;;;;;1.67;0.85;;;;;;;13.73;nan;100035.66;5070287;28;20517;-71
2021/05/21 03:13:16;;;;;;;1.73;0.75;;;;;;;13.66;nan;100038.25;5052585;28;20055;-71
2021/05/21 03:15:42;;;;;;;2.83;0.80;;;;;;;13.73;nan;100043.63;5072064;28;20037;-71
2021/05/21 03:18:17;;;;;;;2.22;0.80;;;;;;;13.67;nan;100045.19;5088678;28;20109;-73
2021/05/21 03:20:43;;;;;;;2.17;0.80;;;;;;;13.65;nan;100036.59;5084907;28;20028;-71
2021/05/21 03:23:08;;;;;;;2.10;0.77;;;;;;;13.68;nan;100030.06;5082990;28;20105;-72
2021/05/21 03:25:35;;;;;;;1.55;0.70;;;;;;;13.66;nan;100027.63;5085402;28;20042;-71
2021/05/21 03:28:00;;;;;;;2.33;0.80;;;;;;;13.70;nan;100020.91;5084973;28;20036;-70
2021/05/21 03:30:25;;;;;;;4.53;1.00;;;;;;;13.69;nan;100027.25;5071489;28;20090;-71
2021/05/21 03:32:51;;;;;;;2.08;0.85;;;;;;;13.68;nan;100020.28;5091245;28;20036;-71
2021/05/21 03:35:16;;;;;;;1.38;0.77;;;;;;;13.67;nan;100015.16;5089983;28;20086;-70
2021/05/21 03:37:42;;;;;;;1.33;0.80;;;;;;;13.72;nan;100007.44;5075971;28;20044;-71
2021/05/21 03:40:08;;;;;;;2.38;1.00;;;;;;;13.69;nan;100013.13;5084913;28;20035;-71
2021/05/21 03:42:33;;;;;;;1.77;0.90;;;;;;;13.70;nan;100015.59;5089911;28;20043;-71
2021/05/21 03:44:58;;;;;;;3.33;0.80;;;;;;;13.67;nan;100015.97;5089599;28;20060;-71
2021/05/21 03:47:24;;;;;;;1.15;0.82;;;;;;;13.74;nan;100011.56;5077721;28;20051;-71
2021/05/21 03:49:50;;;;;;;1.60;0.90;;;;;;;13.73;nan;100015.25;5069567;28;20402;-70
2021/05/21 03:52:16;;;;;;;1.23;0.70;;;;;;;13.70;nan;100009.47;5071072;28;20040;-71
2021/05/21 03:54:41;;;;;;;2.60;0.77;;;;;;;13.73;nan;100006.44;5086544;28;20104;-70
2021/05/21 03:57:07;;;;;;;2.03;0.80;;;;;;;13.67;nan;99991.25;5071520;28;20424;-70
2021/05/21 03:59:33;;;;;;;2.03;0.77;;;;;;;13.70;nan;99982.88;5070636;28;20060;-70
2021/05/21 04:01:58;;;;;;;1.52;0.70;;;;;;;13.70;nan;99988.22;5087857;28;20067;-71
2021/05/21 04:04:23;;;;;;;1.98;0.70;;;;;;;13.68;nan;99977.78;5074859;28;20488;-71
2021/05/21 04:06:49;;;;;;;2.28;0.85;;;;;;;13.70;nan;99972.25;5085643;28;20119;-70
2021/05/21 04:09:14;;;;;;;1.00;0.70;;;;;;;13.70;nan;99974.91;5088111;28;20040;-70
2021/05/21 04:11:39;;;;;;;1.58;0.77;;;;;;;13.70;nan;99980.22;5091443;28;20032;-70
2021/05/21 04:14:06;;;;;;;1.48;0.70;;;;;;;13.75;nan;99978.69;5080607;28;20528;-72
2021/05/21 04:16:32;;;;;;;1.92;0.70;;;;;;;13.70;nan;99978.41;5070652;28;20505;-70
2021/05/21 04:18:58;;;;;;;1.42;0.70;;;;;;;13.73;nan;99967.41;5064236;28;20048;-70
2021/05/21 04:21:24;;;;;;;1.42;0.70;;;;;;;13.72;nan;99975.56;5065719;28;20045;-70
2021/05/21 04:23:50;;;;;;;0.93;0.70;;;;;;;13.73;nan;99964.75;5071387;28;20097;-70
2021/05/21 04:26:18;;;;;;;3.15;0.80;;;;;;;13.70;nan;99965.09;5088757;28;20036;-71
2021/05/21 04:28:50;;;;;;;1.13;0.70;;;;;;;13.76;nan;99968.88;5090884;28;20081;-71
2021/05/21 04:31:16;;;;;;;;;;;;;;;13.73;nan;99966.56;5074146;28;20032;-71
2021/05/21 04:33:42;;;;;;;3.03;1.00;;;;;;;13.75;nan;99957.44;5068290;28;19920;-71
2021/05/21 04:36:07;;;;;;;1.10;0.70;;;;;;;13.76;nan;99953.75;5052506;28;20049;-71
2021/05/21 04:38:32;;;;;;;1.08;0.75;;;;;;;13.78;nan;99950.91;5086918;28;20547;-71
2021/05/21 04:40:58;;;;;;;1.52;0.80;;;;;;;13.78;nan;99961.53;5071002;28;20083;-71
2021/05/21 04:43:25;;;;;;;2.00;0.70;;;;;;;13.87;nan;99955.13;5070484;28;20040;-72
2021/05/21 04:45:50;;;;;;;1.98;0.80;;;;;;;13.87;nan;99951.59;5070863;28;20063;-71
2021/05/21 04:48:16;;;;;;;1.52;0.70;;;;;;;13.81;nan;99948.69;5071941;28;20493;-72
2021/05/21 04:50:42;;;;;;;2.22;0.75;;;;;;;13.84;nan;99947.50;5086582;28;20468;-72
2021/05/21 04:53:07;;;;;;;1.35;0.80;;;;;;;13.87;nan;99952.47;5074940;28;20047;-70
2021/05/21 04:55:32;;;;;;;1.67;0.70;;;;;;;13.89;nan;99938.97;5069727;28;20170;-71
2021/05/21 04:57:57;;;;;;;1.98;0.80;;;;;;;13.95;nan;99935.56;5070124;28;20048;-71
2021/05/21 05:00:23;;;;;;;1.98;0.70;;;;;;;13.93;nan;99938.41;5088964;28;20040;-71
2021/05/21 05:02:48;;;;;;;2.35;0.88;;;;;;;13.99;nan;99928.84;5074403;28;20052;-71
2021/05/21 05:05:14;;;;;;;1.90;0.75;;;;;;;13.97;nan;99928.22;5069610;28;20036;-71
2021/05/21 05:07:39;;;;;;;1.52;0.80;;;;;;;14.08;nan;99927.72;5066933;28;20040;-72
2021/05/21 05:10:05;;;;;;;2.40;0.88;;;;;;;14.07;nan;99915.44;5080550;28;20039;-70
2021/05/21 05:12:30;;;;;;;1.25;0.60;;;;;;;14.09;nan;99910.75;5085812;28;20497;-71
2021/05/21 05:14:55;;;;;;;1.42;0.77;;;;;;;14.12;nan;99917.53;5079038;28;20032;-71
2021/05/21 05:17:21;;;;;;;1.60;0.95;;;;;;;14.11;nan;99914.06;5070271;28;20044;-71
2021/05/21 05:19:46;;;;;;;1.75;0.95;;;;;;;14.17;nan;99909.81;5071767;28;20113;-70
2021/05/21 05:22:12;;;;;;;2.05;0.60;;;;;;;14.18;nan;99912.28;5088974;28;20115;-71
2021/05/21 05:24:37;;;;;;;2.17;0.80;;;;;;;14.21;nan;99911.91;5051334;28;20043;-71
2021/05/21 05:27:03;;;;;;;1.80;0.70;;;;;;;14.21;nan;99900.44;5070601;28;20062;-70
2021/05/21 05:29:33;;;;;;;2.55;0.90;;;;;;;14.28;nan;99901.31;5070405;28;20063;-70
2021/05/21 05:32:01;;;;;;;1.70;0.70;;;;;;;14.27;nan;99901.50;5069677;28;20501;-71
2021/05/21 05:34:26;;;;;;;2.42;0.73;;;;;;;14.27;nan;99893.53;5089433;28;20794;-71
2021/05/21 05:36:52;;;;;;;1.30;0.70;;;;;;;14.29;nan;99894.16;5089831;28;20058;-70
2021/05/21 05:39:17;;;;;;;1.63;0.70;;;;;;;14.32;nan;99896.44;5088530;28;20040;-71
2021/05/21 05:41:42;;;;;;;2.10;0.70;;;;;;;14.34;nan;99897.06;5088722;28;20036;-71
2021/05/21 05:44:08;;;;;;;1.55;0.70;;;;;;;14.42;nan;99894.28;5088028;28;20072;-70
2021/05/21 05:46:33;;;;;;;1.73;0.77;;;;;;;14.34;nan;99878.44;5086497;28;20067;-71
2021/05/21 05:48:58;;;;;;;1.20;0.60;;;;;;;14.33;nan;99869.66;5082320;28;20032;-70
2021/05/21 05:51:23;;;;;;;1.48;0.60;;;;;;;14.40;nan;99873.19;5089516;28;20095;-71
2021/05/21 05:53:49;;;;;;;1.30;0.70;;;;;;;14.43;nan;99879.97;5089574;28;20032;-71
2021/05/21 05:56:14;;;;;;;1.02;0.60;;;;;;;14.48;nan;99877.53;5084588;28;20064;-71
2021/05/21 05:58:40;;;;;;;1.13;0.80;;;;;;;14.49;nan;99886.34;5088942;28;20084;-71
2021/05/21 06:01:05;;;;;;;1.70;0.73;;;;;;;14.49;nan;99881.88;5089144;28;20055;-71
2021/05/21 06:03:31;;;;;;;1.60;0.73;;;;;;;14.53;nan;99885.75;5088913;28;20054;-72
2021/05/21 06:05:57;;;;;;;4.50;0.90;;;;;;;14.55;nan;99883.75;5084501;28;20086;-72
2021/05/21 06:08:22;;;;;;;2.33;0.80;;;;;;;14.54;nan;99876.81;5088253;28;20032;-71
2021/05/21 06:10:49;;;;;;;1.40;0.80;;;;;;;14.45;nan;99877.94;5088945;28;20055;-71
2021/05/21 06:13:15;;;;;;;5.13;1.10;;;;;;;14.47;nan;99867.94;5088220;28;20119;-72
2021/05/21 06:15:40;;;;;;;1.85;0.80;;;;;;;14.48;nan;99872.22;5088481;28;20123;-72
2021/05/21 06:18:06;;;;;;;1.20;0.70;;;;;;;14.45;nan;99876.09;5087889;28;20129;-71
2021/05/21 06:20:33;;;;;;;1.52;0.80;;;;;;;14.42;nan;99862.38;5086895;28;20032;-72
2021/05/21 06:23:02;;;;;;;0.98;0.60;;;;;;;14.43;nan;99870.13;5086556;28;20028;-70
2021/05/21 06:25:40;;;;;;;2.15;0.80;;;;;;;14.47;nan;99857.28;5085446;28;20044;-72
2021/05/21 06:28:06;;;;;;;4.05;0.82;;;;;;;14.45;nan;99857.47;5088775;28;20042;-71
2021/05/21 06:30:32;;;;;;;1.48;0.80;;;;;;;14.42;nan;99846.41;5085635;28;20088;-71
2021/05/21 06:32:57;;;;;;;1.45;0.60;;;;;;;14.44;nan;99847.00;5087677;28;20036;-71
2021/05/21 06:35:23;;;;;;;3.05;0.90;;;;;;;14.37;nan;99843.47;5088155;28;20032;-71
2021/05/21 06:37:48;;;;;;;1.20;0.65;;;;;;;14.34;nan;99842.03;5088313;28;20029;-71
2021/05/21 06:40:14;;;;;;;1.60;0.90;;;;;;;14.39;nan;99834.28;5090954;28;20036;-72
2021/05/21 06:42:40;;;;;;;1.55;0.70;;;;;;;14.45;nan;99844.16;5093107;28;20032;-71
2021/05/21 06:45:06;;;;;;;1.35;0.70;;;;;;;14.45;nan;99844.16;5092445;28;20124;-70
2021/05/21 06:47:31;;;;;;;2.20;1.02;;;;;;;14.42;nan;99854.38;5092457;28;20039;-71
2021/05/21 06:49:57;;;;;;;1.60;0.80;;;;;;;14.44;nan;99847.00;5092386;28;20546;-71
2021/05/21 06:52:22;;;;;;;2.65;0.85;;;;;;;14.40;nan;99856.41;5091951;28;20039;-70
2021/05/21 06:54:47;;;;;;;1.17;0.60;;;;;;;14.39;nan;99860.06;5091006;28;20051;-71
2021/05/21 06:57:13;;;;;;;2.60;0.90;;;;;;;14.41;nan;99860.72;5092457;28;20119;-71
2021/05/21 06:59:39;;;;;;;2.53;0.80;;;;;;;14.43;nan;99843.53;5088223;28;20021;-71
2021/05/21 07:02:04;;;;;;;2.65;0.98;;;;;;;14.40;nan;99843.94;5088454;28;20032;-71
2021/05/21 07:04:30;;;;;;;2.58;0.80;;;;;;;14.40;nan;99833.28;5089380;28;20397;-72
2021/05/21 07:06:55;;;;;;;1.85;0.70;;;;;;;14.47;nan;99833.34;5092326;28;20047;-72
2021/05/21 07:09:20;;;;;;;2.88;0.73;;;;;;;14.54;nan;99839.56;5088468;28;20028;-71
2021/05/21 07:11:46;;;;;;;1.50;0.70;;;;;;;14.59;nan;99837.13;5073584;28;20035;-69
2021/05/21 07:14:11;;;;;;;2.90;0.80;;;;;;;14.58;nan;99821.34;5087307;28;20024;-72
2021/05/21 07:16:37;;;;;;;1.75;1.00;;;;;;;14.64;nan;99834.72;5082400;28;20032;-72
2021/05/21 07:19:03;;;;;;;2.03;0.73;;;;;;;14.64;nan;99829.38;5091656;28;20396;-70
2021/05/21 07:21:28;;;;;;;1.42;0.85;;;;;;;14.64;nan;99840.03;5092483;28;20392;-72
2021/05/21 07:23:53;;;;;;;1.50;0.77;;;;;;;14.70;nan;99824.28;5092457;28;20028;-71
2021/05/21 07:26:20;;;;;;;3.00;0.90;;;;;;;14.73;nan;99822.06;5092442;28;20040;-71
2021/05/21 07:28:45;;;;;;;1.10;0.70;;;;;;;14.72;nan;99822.25;5091211;28;20025;-71
2021/05/21 07:31:10;;;;;;;1.60;0.77;;;;;;;14.77;nan;99817.16;5088733;28;20036;-72
2021/05/21 07:33:36;;;;;;;2.85;0.70;;;;;;;14.83;nan;99817.22;5090696;28;20043;-71
2021/05/21 07:36:03;;;;;;;2.05;0.82;;;;;;;14.73;nan;99818.56;5090302;28;20032;-72
2021/05/21 07:38:28;;;;;;;1.67;0.70;;;;;;;14.81;nan;99813.91;5092132;28;20035;-71
2021/05/21 07:40:54;;;;;;;1.33;0.60;;;;;;;14.80;nan;99819.44;5092800;28;20028;-71
2021/05/21 07:43:19;;;;;;;2.65;0.90;;;;;;;14.80;nan;99814.09;5092244;28;20064;-70
2021/05/21 07:45:45;;;;;;;2.08;0.82;;;;;;;14.82;nan;99817.41;5087743;28;20043;-71
2021/05/21 07:48:10;;;;;;;2.80;0.80;;;;;;;14.83;nan;99819.88;5072631;28;20043;-70
2021/05/21 07:50:38;;;;;;;1.55;0.80;;;;;;;14.73;nan;99831.88;5072752;28;20073;-72
2021/05/21 07:53:04;;;;;;;1.35;0.85;;;;;;;14.82;nan;99831.53;5092205;28;20113;-72
2021/05/21 07:55:30;;;;;;;1.27;0.77;;;;;;;14.99;nan;99831.19;5073415;28;20066;-72
2021/05/21 07:57:55;;;;;;;2.85;0.80;;;;;;;15.00;nan;99830.19;5087733;28;20037;-72
2021/05/21 08:00:21;;;;;;;3.10;0.88;;;;;;;15.15;nan;99836.19;5088941;28;20119;-71
2021/05/21 08:02:46;;;;;;;2.40;0.68;;;;;;;15.12;nan;99830.47;5091537;28;20039;-72
2021/05/21 08:05:12;;;;;;;1.45;0.70;;;;;;;15.22;nan;99834.38;5090998;28;20075;-71
2021/05/21 08:07:37;;;;;;;2.42;0.70;;;;;;;15.20;nan;99830.28;5092183;28;20103;-71
2021/05/21 08:10:05;;;;;;;2.30;0.80;;;;;;;15.20;nan;99820.44;5092493;28;20065;-71
2021/05/21 08:12:30;;;;;;;2.22;0.70;;;;;;;15.31;nan;99823.56;5091428;28;20489;-71
2021/05/21 08:14:56;;;;;;;1.65;1.05;;;;;;;15.26;nan;99819.66;5090177;28;20119;-73
2021/05/21 08:17:21;;;;;;;3.65;0.90;;;;;;;15.42;nan;99830.97;5091173;28;20294;-72
2021/05/21 08:19:48;;;;;;;2.63;0.88;;;;;;;15.39;nan;99824.19;5086282;28;20035;-72
2021/05/21 08:22:14;;;;;;;2.65;0.93;;;;;;;15.43;nan;99821.97;5089785;28;20028;-72
2021/05/21 08:24:39;;;;;;;3.90;0.80;;;;;;;15.39;nan;99818.84;5091262;28;20500;-72
2021/05/21 08:27:05;;;;;;;3.55;0.90;;;;;;;15.45;nan;99819.91;5090185;28;20032;-71
2021/05/21 08:29:30;;;;;;;2.15;0.70;;;;;;;15.48;nan;99814.19;5090369;28;20104;-72
2021/05/21 08:31:57;;;;;;;1.48;0.80;;;;;;;15.46;nan;99817.03;5089777;28;20401;-70
2021/05/21 08:34:23;;;;;;;1.85;0.80;;;;;;;15.42;nan;99814.97;5087325;28;20598;-72
2021/05/21 08:36:48;;;;;;;2.35;0.60;;;;;;;15.46;nan;99811.72;5090360;28;20032;-72
2021/05/21 08:39:14;;;;;;;1.52;0.70;;;;;;;15.40;nan;99806.38;5089932;28;20038;-71
2021/05/21 08:41:43;;;;;;;2.97;0.98;;;;;;;15.46;nan;99813.56;5089599;28;20028;-72
2021/05/21 08:44:09;;;;;;;1.50;0.80;;;;;;;15.44;nan;99803.09;5084379;28;20113;-70
2021/05/21 08:46:35;;;;;;;3.83;1.00;;;;;;;15.45;nan;99810.06;5090436;28;20067;-72
2021/05/21 08:49:02;;;;;;;3.20;0.90;;;;;;;15.55;nan;99822.19;5089133;28;20067;-72
2021/05/21 08:51:29;;;;;;;2.08;0.90;;;;;;;15.52;nan;99834.09;5084475;28;20042;-71
2021/05/21 08:53:55;;;;;;;1.33;0.80;;;;;;;15.53;nan;99845.56;5090827;28;20035;-72
2021/05/21 08:56:21;;;;;;;2.58;1.08;;;;;;;15.48;nan;99852.28;5086835;28;20443;-73
2021/05/21 08:58:46;;;;;;;2.25;0.77;;;;;;;15.47;nan;99860.50;5089308;28;20043;-72
2021/05/21 09:01:12;;;;;;;3.50;0.63;;;;;;;15.47;nan;99855.19;5090001;28;20040;-72
2021/05/21 09:03:37;;;;;;;2.53;0.73;;;;;;;15.45;nan;99844.72;5064332;28;20024;-72
2021/05/21 09:06:22;;;;;;;1.08;0.68;;;;;;;15.50;nan;99852.91;5086304;28;20043;-72
2021/05/21 09:08:50;;;;;;;0.95;0.70;;;;;;;15.69;nan;99853.19;5086692;28;20051;-72
2021/05/21 09:11:24;;;;;;;1.38;0.50;;;;;;;15.86;nan;99865.13;5090326;28;20052;-72
2021/05/21 09:13:52;;;;;;;1.27;0.65;;;;;;;16.07;nan;99866.81;5089178;28;20035;-71
2021/05/21 09:16:22;;;;;;;3.65;0.90;;;;;;;16.02;nan;99868.44;5089868;28;20649;-71
2021/05/21 09:19:02;;;;;;;2.92;0.90;;;;;;;16.10;nan;99866.38;5086991;28;20024;-71
2021/05/21 09:22:00;;;;;;;4.68;0.88;;;;;;;16.04;nan;99869.03;5089608;28;20092;-71
2021/05/21 09:24:31;;;;;;;2.80;0.70;;;;;;;15.95;nan;99879.09;5087431;28;20568;-72
2021/05/21 09:26:57;;;;;;;4.30;0.70;;;;;;;15.86;nan;99883.78;5089217;28;20123;-71
2021/05/21 09:29:57;;;;;;;1.80;0.70;;;;;;;15.80;nan;99870.44;5089217;28;20111;-71
2021/05/21 09:32:30;;;;;;;1.70;0.77;;;;;;;15.79;nan;99864.31;5006487;28;20043;-72
2021/05/21 09:35:01;;;;;;;1.77;0.75;;;;;;;15.75;nan;99873.72;5073033;28;20073;-72
2021/05/21 09:37:27;;;;;;;1.58;0.55;;;;;;;15.77;nan;99861.00;5087506;28;20119;-72
2021/05/21 09:40:07;;;;;;;2.20;0.80;;;;;;;15.87;nan;99861.47;5089242;28;20396;-72
2021/05/21 09:42:48;;;;;;;2.92;1.10;;;;;;;16.09;nan;99866.63;5088675;28;20036;-72
2021/05/21 09:45:21;;;;;;;2.40;0.80;;;;;;;16.21;nan;99866.81;5089362;28;20090;-73
2021/05/21 09:47:49;;;;;;;2.10;0.80;;;;;;;16.63;nan;99864.75;5088617;28;20352;-71
2021/05/21 09:50:14;;;;;;;1.77;0.75;;;;;;;16.51;nan;99862.69;5088244;28;20035;-72
2021/05/21 09:52:47;;;;;;;2.50;1.00;;;;;;;16.61;nan;99862.25;5075022;28;20040;-72
2021/05/21 09:55:14;;;;;;;4.65;1.00;;;;;;;16.78;nan;99868.00;5080039;28;20086;-71
2021/05/21 09:57:40;;;;;;;4.32;0.90;;;;;;;16.87;nan;99863.28;5085825;28;20397;-72
2021/05/21 10:00:17;;;;;;;3.00;0.80;;;;;;;17.04;nan;99872.50;5081302;28;20079;-72
2021/05/21 10:02:43;;;;;;;6.18;0.82;;;;;;;17.09;nan;99875.34;5075134;28;20028;-71
2021/05/21 10:05:09;;;;;;;1.45;0.65;;;;;;;17.07;nan;99874.75;5084195;28;20424;-72
2021/05/21 10:07:34;;;;;;;3.45;0.80;;;;;;;17.11;nan;99875.97;5082298;28;20355;-71
2021/05/21 10:10:00;;;;;;;1.75;0.60;;;;;;;17.02;nan;99871.03;5086580;28;20666;-71
2021/05/21 10:12:25;;;;;;;1.85;0.60;;;;;;;17.23;nan;99860.09;5087590;28;20477;-72
2021/05/21 10:14:52;;;;;;;1.48;0.70;;;;;;;17.43;nan;99873.38;5092224;28;20115;-72
2021/05/21 10:17:20;;;;;;;1.67;0.60;;;;;;;17.43;nan;99864.53;5092829;28;20523;-72
2021/05/21 10:19:47;;;;;;;2.58;0.68;;;;;;;17.59;nan;99856.84;5090680;28;20035;-72
2021/05/21 10:22:17;;;;;;;4.90;0.82;;;;;;;17.75;nan;99863.53;5077740;28;20512;-73
2021/05/21 10:24:46;;;;;;;1.45;0.50;;;;;;;17.73;nan;99864.78;5089251;28;20032;-72
2021/05/21 10:27:26;;;;;;;1.30;0.52;;;;;;;17.65;nan;99873.88;5086580;28;20070;-73
2021/05/21 10:30:01;;;;;;;2.97;0.70;;;;;;;17.62;nan;99869.78;5086769;28;20032;-72
2021/05/21 10:32:30;;;;;;;7.57;0.95;;;;;;;17.48;nan;99870.88;5090979;28;20139;-72
2021/05/21 10:34:57;;;;;;;3.92;1.42;;;;;;;17.39;nan;99874.81;5087198;28;20036;-72
2021/05/21 10:37:31;;;;;;;2.80;0.82;;;;;;;17.28;nan;99854.09;5084460;28;20044;-72
2021/05/21 10:40:09;;;;;;;2.17;0.93;;;;;;;17.41;nan;99854.88;5074209;28;20107;-72
2021/05/21 10:42:44;;;;;;;4.43;0.90;;;;;;;17.44;nan;99847.47;5085851;28;20040;-72
2021/05/21 10:45:22;;;;;;;2.90;0.70;;;;;;;17.76;nan;99838.44;5074181;28;20450;-72
2021/05/21 10:47:58;;;;;;;2.42;0.52;;;;;;;18.12;nan;99853.03;5085030;28;20039;-71
2021/05/21 10:50:35;;;;;;;3.20;0.60;;;;;;;18.05;nan;99846.91;5071830;28;20028;-72
2021/05/21 10:53:03;;;;;;;1.50;0.70;;;;;;;17.96;nan;99858.91;5093025;28;20162;-72
2021/05/21 10:55:51;;;;;;;3.38;0.73;;;;;;;17.71;nan;99848.13;5090166;28;20453;-72
2021/05/21 10:58:30;;;;;;;4.38;0.80;;;;;;;17.69;nan;99852.88;5075586;28;20051;-72
2021/05/21 11:01:14;;;;;;;2.95;1.05;;;;;;;17.63;nan;99843.84;5088796;28;20032;-71
2021/05/21 11:03:58;;;;;;;1.33;0.80;;;;;;;17.73;nan;99832.69;5085357;28;20086;-72
2021/05/21 11:06:25;;;;;;;1.65;0.82;;;;;;;17.73;nan;99835.38;5089433;28;20040;-71
2021/05/21 11:09:05;;;;;;;3.80;0.70;;;;;;;18.00;nan;99809.28;5090186;28;20123;-70
2021/05/21 11:11:56;;;;;;;2.40;0.80;;;;;;;18.03;nan;99827.56;5087436;28;20492;-70
2021/05/21 11:14:42;;;;;;;3.60;0.98;;;;;;;18.03;nan;99839.09;5091379;28;20089;-70
2021/05/21 11:17:15;;;;;;;1.98;0.63;;;;;;;17.93;nan;99832.59;5091597;28;20035;-69
2021/05/21 11:19:50;;;;;;;4.22;0.70;;;;;;;17.80;nan;99818.28;5083693;28;20043;-71
2021/05/21 11:22:19;;;;;;;3.20;0.80;;;;;;;17.88;nan;99813.72;5091039;28;20496;-71
2021/05/21 11:24:47;;;;;;;2.22;0.70;;;;;;;17.92;nan;99815.72;5089058;28;20036;-71
2021/05/21 11:27:14;;;;;;;2.65;0.90;;;;;;;17.88;nan;99830.56;5091210;28;20044;-71
2021/05/21 11:29:45;;;;;;;3.65;0.80;;;;;;;17.95;nan;99815.28;5090029;28;20032;-71
2021/05/21 11:32:11;;;;;;;2.22;0.60;;;;;;;18.08;nan;99821.56;5081406;28;20031;-71
2021/05/21 11:34:37;;;;;;;3.00;0.80;;;;;;;17.93;nan;99812.00;5066078;28;20024;-71
2021/05/21 11:37:05;;;;;;;1.73;0.52;;;;;;;18.16;nan;99816.78;5091158;28;20067;-71
2021/05/21 11:39:31;;;;;;;6.15;0.90;;;;;;;18.47;nan;99801.66;5085601;28;20032;-71
2021/05/21 11:41:57;;;;;;;3.22;0.60;;;;;;;18.72;nan;99811.50;5088081;28;20031;-70
2021/05/21 11:44:28;;;;;;;3.08;0.93;;;;;;;18.70;nan;99819.75;5088298;28;20032;-71
2021/05/21 11:47:00;;;;;;;2.25;0.70;;;;;;;18.95;nan;99806.34;5090341;28;20032;-71
2021/05/21 11:49:26;;;;;;;2.97;0.85;;;;;;;19.22;nan;99808.69;5087415;28;20029;-71